Time;durP1;ratioP1;P1;durP2;ratioP2;P2;SDS_P1;SDS_P2;PMS_P1;PMS_P2;Temp;Humidity;BMP_temperature;BMP_pressure;BME280_temperature;BME280_humidity;BME280_pressure;Samples;Min_cycle;Max_cycle;Signal;HPM_P1;HPM_P2
2022/03/14 00:01:17;;;;;;;1.65;0.10;;;21.60;46.10;;;;;;5127321;27;20048;-47
2022/03/14 00:03:50;;;;;;;0.57;0.10;;;21.50;46.20;;;;;;5106801;28;20076;-49
2022/03/14 00:06:18;;;;;;;1.08;0.47;;;21.50;46.30;;;;;;5126897;27;20026;-48
2022/03/14 00:08:47;;;;;;;0.90;0.20;;;21.50;46.50;;;;;;5114046;27;20039;-47
2022/03/14 00:11:15;;;;;;;4.78;0.10;;;21.40;46.50;;;;;;5123348;27;20031;-49
2022/03/14 00:13:46;;;;;;;0.52;0.10;;;21.40;46.70;;;;;;5119317;27;20031;-49
2022/03/14 00:16:25;;;;;;;1.65;0.50;;;21.30;46.80;;;;;;5125824;27;20047;-48
2022/03/14 00:18:53;;;;;;;0.75;0.40;;;21.30;47.00;;;;;;5122780;27;20079;-48
2022/03/14 00:21:21;;;;;;;1.08;0.10;;;21.30;47.10;;;;;;5119853;27;20118;-49
2022/03/14 00:23:49;;;;;;;1.00;0.03;;;21.20;47.40;;;;;;5116322;27;20066;-50
2022/03/14 00:26:16;;;;;;;0.30;0.20;;;21.20;47.30;;;;;;5113897;27;20118;-49
2022/03/14 00:28:43;;;;;;;0.63;0.63;;;21.10;47.30;;;;;;5128300;27;20043;-48
2022/03/14 00:31:10;;;;;;;0.75;0.10;;;21.10;47.40;;;;;;5107357;27;20105;-51
2022/03/14 00:33:39;;;;;;;1.27;0.10;;;21.10;47.60;;;;;;5132993;27;20030;-51
2022/03/14 00:36:08;;;;;;;1.20;0.20;;;21.00;47.60;;;;;;5124013;27;20063;-47
2022/03/14 00:38:36;;;;;;;0.32;0.10;;;21.00;47.70;;;;;;5114525;27;20051;-49
2022/03/14 00:41:05;;;;;;;0.10;0.08;;;21.00;47.80;;;;;;5121377;27;20043;-47
2022/03/14 00:43:32;;;;;;;0.55;0.10;;;21.00;47.80;;;;;;5129622;27;20074;-48
2022/03/14 00:45:59;;;;;;;0.40;0.10;;;21.00;48.00;;;;;;5122831;27;20512;-47
2022/03/14 00:48:27;;;;;;;0.90;0.10;;;20.90;48.00;;;;;;5122302;27;20035;-48
2022/03/14 00:50:55;;;;;;;2.13;0.20;;;20.90;48.10;;;;;;5118507;27;20072;-48
2022/03/14 00:53:22;;;;;;;2.80;0.38;;;20.90;48.20;;;;;;5130473;27;20043;-50
2022/03/14 00:55:49;;;;;;;0.95;0.00;;;20.90;48.20;;;;;;5101015;27;20522;-47
2022/03/14 00:58:19;;;;;;;0.60;0.03;;;20.80;48.20;;;;;;5104886;27;20064;-48
2022/03/14 01:00:48;;;;;;;0.13;0.00;;;20.80;48.20;;;;;;5130028;27;20139;-49
2022/03/14 01:03:16;;;;;;;0.65;0.10;;;20.80;48.20;;;;;;5123497;27;20047;-48
2022/03/14 01:05:43;;;;;;;1.55;0.20;;;20.80;48.20;;;;;;5116542;27;20031;-49
2022/03/14 01:08:10;;;;;;;0.77;0.20;;;20.80;48.20;;;;;;5122193;27;20666;-47
2022/03/14 01:10:37;;;;;;;0.47;0.47;;;20.80;48.20;;;;;;5130811;27;20034;-49
2022/03/14 01:13:04;;;;;;;0.17;0.10;;;20.80;48.20;;;;;;5125480;27;20051;-50
2022/03/14 01:15:34;;;;;;;1.40;0.10;;;20.70;48.20;;;;;;5126248;27;20034;-46
2022/03/14 01:18:02;;;;;;;0.68;0.10;;;20.70;48.20;;;;;;5121655;27;20043;-47
2022/03/14 01:20:29;;;;;;;3.40;0.20;;;20.70;48.20;;;;;;5113940;27;20035;-48
2022/03/14 01:22:56;;;;;;;0.28;0.10;;;20.70;48.20;;;;;;5115641;27;20486;-48
2022/03/14 01:25:24;;;;;;;3.70;0.43;;;20.60;48.20;;;;;;5125256;27;20059;-49
2022/03/14 01:27:51;;;;;;;3.20;0.55;;;20.60;48.30;;;;;;5121343;27;20052;-49
2022/03/14 01:30:19;;;;;;;3.22;0.10;;;20.60;48.20;;;;;;5120698;27;20038;-47
2022/03/14 01:32:47;;;;;;;2.22;0.10;;;20.60;48.30;;;;;;5119943;27;20042;-46
2022/03/14 01:35:17;;;;;;;2.17;0.10;;;20.60;48.30;;;;;;5125812;27;20031;-48
2022/03/14 01:37:47;;;;;;;2.17;0.00;;;20.60;48.30;;;;;;5120275;27;20051;-51
2022/03/14 01:40:17;;;;;;;1.17;0.30;;;20.60;48.30;;;;;;5120555;27;20148;-47
2022/03/14 01:42:44;;;;;;;1.77;0.10;;;20.60;48.30;;;;;;5131015;27;20047;-48
2022/03/14 01:45:13;;;;;;;1.20;0.20;;;20.50;48.30;;;;;;5121714;27;20055;-49
2022/03/14 01:47:41;;;;;;;0.80;0.55;;;20.50;48.30;;;;;;5113523;27;20054;-48
2022/03/14 01:50:12;;;;;;;1.55;0.17;;;20.50;48.40;;;;;;5118817;27;20063;-48
2022/03/14 01:52:39;;;;;;;0.47;0.20;;;20.50;48.40;;;;;;5127499;27;20805;-47
2022/03/14 01:55:08;;;;;;;2.47;0.10;;;20.40;48.30;;;;;;5122049;27;20035;-48
2022/03/14 01:57:35;;;;;;;0.47;0.00;;;20.50;48.40;;;;;;5122198;27;20575;-50
2022/03/14 02:00:04;;;;;;;0.85;0.10;;;20.50;48.40;;;;;;5118633;27;20471;-46
2022/03/14 02:02:41;;;;;;;1.70;0.10;;;20.40;48.30;;;;;;5124445;27;20528;-46
2022/03/14 02:05:10;;;;;;;0.35;0.10;;;20.40;48.40;;;;;;5114802;27;20686;-48
2022/03/14 02:07:37;;;;;;;0.88;0.10;;;20.40;48.50;;;;;;5121644;27;20576;-47
2022/03/14 02:10:05;;;;;;;0.30;0.10;;;20.30;48.50;;;;;;5126620;27;20046;-46
2022/03/14 02:12:32;;;;;;;1.55;0.10;;;20.40;48.60;;;;;;5126427;27;20062;-48
2022/03/14 02:14:59;;;;;;;2.67;0.22;;;20.30;48.50;;;;;;5116494;27;20721;-47
2022/03/14 02:17:26;;;;;;;0.10;0.10;;;20.30;48.50;;;;;;5120543;27;20035;-48
2022/03/14 02:19:53;;;;;;;2.92;0.10;;;20.30;48.50;;;;;;5117882;27;20047;-47
2022/03/14 02:22:22;;;;;;;3.05;0.10;;;20.30;48.60;;;;;;5118793;27;20314;-51
2022/03/14 02:24:49;;;;;;;4.93;0.20;;;20.30;48.50;;;;;;5124911;27;20047;-49
2022/03/14 02:27:18;;;;;;;2.85;0.38;;;20.30;48.50;;;;;;5119529;27;20039;-47
2022/03/14 02:29:45;;;;;;;1.42;0.10;;;20.20;48.50;;;;;;5111341;27;20054;-48
2022/03/14 02:32:13;;;;;;;1.40;0.10;;;20.20;48.60;;;;;;5116250;27;20043;-47
2022/03/14 02:34:40;;;;;;;2.10;0.20;;;20.20;48.70;;;;;;5130847;27;20054;-47
2022/03/14 02:37:07;;;;;;;1.75;0.10;;;20.20;48.70;;;;;;5120105;27;20484;-49
2022/03/14 02:39:37;;;;;;;0.80;0.10;;;20.20;48.70;;;;;;5119499;27;20053;-49
2022/03/14 02:42:05;;;;;;;1.10;0.10;;;20.20;48.80;;;;;;5118157;27;20540;-50
2022/03/14 02:44:34;;;;;;;0.63;0.10;;;20.20;48.80;;;;;;5121679;27;20685;-47
2022/03/14 02:47:04;;;;;;;1.15;0.10;;;20.20;48.80;;;;;;5114828;27;20043;-48
2022/03/14 02:49:33;;;;;;;0.30;0.13;;;20.10;48.90;;;;;;5118292;27;20126;-50
2022/03/14 02:52:00;;;;;;;0.80;0.00;;;20.20;49.00;;;;;;5127906;27;20422;-54
2022/03/14 02:54:28;;;;;;;2.22;0.10;;;20.10;48.90;;;;;;5121372;27;20040;-49
2022/03/14 02:56:57;;;;;;;2.55;0.40;;;20.10;49.00;;;;;;5113147;27;20035;-48
2022/03/14 02:59:24;;;;;;;0.75;0.30;;;20.10;49.10;;;;;;5118139;27;20511;-48
2022/03/14 03:01:51;;;;;;;1.08;0.10;;;20.10;49.20;;;;;;5124904;27;20055;-51
2022/03/14 03:04:18;;;;;;;0.10;0.00;;;20.10;49.30;;;;;;5122498;27;20040;-47
2022/03/14 03:06:45;;;;;;;2.58;0.40;;;20.10;49.40;;;;;;5122439;27;20047;-49
2022/03/14 03:09:14;;;;;;;1.65;0.10;;;20.10;49.30;;;;;;5119829;27;20077;-48
2022/03/14 03:11:41;;;;;;;0.35;0.03;;;20.10;49.40;;;;;;5092805;28;20038;-46
2022/03/14 03:14:10;;;;;;;2.78;0.10;;;20.10;49.50;;;;;;5114460;27;20043;-47
2022/03/14 03:16:37;;;;;;;3.95;0.55;;;20.00;49.50;;;;;;5124696;27;20039;-47
2022/03/14 03:19:06;;;;;;;0.10;0.08;;;20.10;49.50;;;;;;5117549;27;20040;-47
2022/03/14 03:21:38;;;;;;;3.92;0.40;;;20.00;49.50;;;;;;5118061;27;20125;-47
2022/03/14 03:24:07;;;;;;;0.55;0.10;;;20.00;49.60;;;;;;5120095;27;20032;-46
2022/03/14 03:26:34;;;;;;;0.90;0.10;;;20.00;49.60;;;;;;5118668;27;20408;-50
2022/03/14 03:29:01;;;;;;;0.80;0.10;;;20.00;49.60;;;;;;5120554;27;20040;-47
2022/03/14 03:31:30;;;;;;;3.28;0.35;;;20.00;49.60;;;;;;5117948;27;20044;-51
2022/03/14 03:33:57;;;;;;;1.02;0.10;;;20.00;49.60;;;;;;5129098;27;20051;-47
2022/03/14 03:36:24;;;;;;;1.27;0.17;;;20.00;49.60;;;;;;5123158;27;20416;-47
2022/03/14 03:38:51;;;;;;;2.05;0.10;;;20.00;49.60;;;;;;5112198;28;20048;-47
2022/03/14 03:41:19;;;;;;;1.35;0.10;;;20.00;49.70;;;;;;5110605;28;20070;-47
2022/03/14 03:43:46;;;;;;;0.43;0.20;;;19.90;49.70;;;;;;5124450;27;20588;-48
2022/03/14 03:46:13;;;;;;;0.93;0.10;;;19.90;49.70;;;;;;5120872;27;20047;-48
2022/03/14 03:48:41;;;;;;;4.15;0.15;;;19.90;49.70;;;;;;5122422;27;20062;-48
2022/03/14 03:51:08;;;;;;;0.20;0.00;;;19.90;49.70;;;;;;5124696;27;20050;-52
2022/03/14 03:53:35;;;;;;;3.60;0.10;;;19.90;49.70;;;;;;5127625;27;20071;-46
2022/03/14 03:56:03;;;;;;;1.17;0.73;;;19.90;49.70;;;;;;5120320;27;20036;-48
2022/03/14 03:58:30;;;;;;;0.98;0.10;;;19.90;49.80;;;;;;5124729;27;20044;-47
2022/03/14 04:00:57;;;;;;;0.40;0.15;;;19.90;49.80;;;;;;5128312;27;20050;-47
2022/03/14 04:03:24;;;;;;;4.93;0.10;;;19.90;49.80;;;;;;5130566;27;20129;-47
2022/03/14 04:05:54;;;;;;;1.20;0.25;;;19.90;49.80;;;;;;5116906;27;20047;-49
2022/03/14 04:08:21;;;;;;;1.50;0.10;;;19.80;49.80;;;;;;5113792;27;20423;-48
2022/03/14 04:10:54;;;;;;;2.60;0.55;;;19.80;49.80;;;;;;5122560;27;20046;-47
2022/03/14 04:13:24;;;;;;;0.82;0.25;;;19.80;49.80;;;;;;5122347;27;20100;-49
2022/03/14 04:15:52;;;;;;;3.70;0.20;;;19.80;49.90;;;;;;5128113;27;20040;-52
2022/03/14 04:18:20;;;;;;;3.13;0.03;;;19.80;49.90;;;;;;5128678;27;20032;-48
2022/03/14 04:20:48;;;;;;;0.63;0.10;;;19.80;50.50;;;;;;5115507;27;20051;-46
2022/03/14 04:23:17;;;;;;;2.30;0.40;;;19.80;49.90;;;;;;5118899;27;20392;-46
2022/03/14 04:25:45;;;;;;;0.95;0.20;;;19.70;49.90;;;;;;5129442;27;20541;-46
2022/03/14 04:28:12;;;;;;;0.85;0.10;;;19.80;49.90;;;;;;5122727;27;20035;-46
2022/03/14 04:30:39;;;;;;;0.25;0.00;;;19.80;49.90;;;;;;5121759;27;20419;-47
2022/03/14 04:33:08;;;;;;;1.05;0.10;;;19.70;49.90;;;;;;5121266;27;20044;-46
2022/03/14 04:35:36;;;;;;;0.50;0.40;;;19.70;49.80;;;;;;5128618;27;20149;-45
2022/03/14 04:38:04;;;;;;;1.58;0.20;;;19.70;49.80;;;;;;5116503;27;20792;-46
2022/03/14 04:40:33;;;;;;;1.33;0.10;;;19.70;49.80;;;;;;5123804;27;20096;-46
2022/03/14 04:43:04;;;;;;;0.90;0.10;;;19.70;49.80;;;;;;5132268;27;20050;-48
2022/03/14 04:45:31;;;;;;;4.90;0.10;;;19.70;49.80;;;;;;5123074;27;20155;-47
2022/03/14 04:47:59;;;;;;;1.70;0.10;;;19.70;49.70;;;;;;5127036;27;20051;-45
2022/03/14 04:50:26;;;;;;;1.85;0.40;;;19.70;49.60;;;;;;5120515;27;20043;-47
2022/03/14 04:52:53;;;;;;;0.77;0.10;;;19.70;49.60;;;;;;5129366;27;20039;-45
2022/03/14 04:55:21;;;;;;;0.20;0.20;;;19.70;49.60;;;;;;5124832;27;20043;-46
2022/03/14 04:57:49;;;;;;;1.33;0.20;;;19.70;49.60;;;;;;5125302;27;20040;-46
2022/03/14 05:00:19;;;;;;;1.88;0.10;;;19.70;49.70;;;;;;5119803;27;20122;-50
2022/03/14 05:02:46;;;;;;;1.85;0.10;;;19.70;49.70;;;;;;5113464;27;20052;-47
2022/03/14 05:05:13;;;;;;;1.70;0.10;;;19.60;49.50;;;;;;5116316;27;20039;-48
2022/03/14 05:07:41;;;;;;;2.15;0.30;;;19.60;49.50;;;;;;5125948;27;20101;-46
2022/03/14 05:10:10;;;;;;;1.20;0.10;;;19.60;49.50;;;;;;5111646;27;20050;-44
2022/03/14 05:12:37;;;;;;;3.65;0.28;;;19.60;49.50;;;;;;5127301;27;20050;-46
2022/03/14 05:15:07;;;;;;;1.58;0.10;;;19.60;49.50;;;;;;5130250;27;20040;-46
2022/03/14 05:17:34;;;;;;;1.70;0.00;;;19.60;49.60;;;;;;5120351;27;20048;-47
2022/03/14 05:20:01;;;;;;;4.55;0.15;;;19.60;49.60;;;;;;5124808;27;20471;-49
2022/03/14 05:22:28;;;;;;;2.00;0.10;;;19.60;49.60;;;;;;5128294;27;20412;-49
2022/03/14 05:24:55;;;;;;;0.60;0.32;;;19.60;49.60;;;;;;5128803;27;20035;-46
2022/03/14 05:27:22;;;;;;;0.43;0.22;;;19.60;49.60;;;;;;5127160;27;20434;-45
2022/03/14 05:29:49;;;;;;;2.75;0.20;;;19.60;49.60;;;;;;5123143;27;20429;-45
2022/03/14 05:32:17;;;;;;;1.50;0.40;;;19.60;49.60;;;;;;5115978;27;20189;-46
2022/03/14 05:34:44;;;;;;;1.70;0.20;;;19.60;49.80;;;;;;5132770;27;20063;-47
2022/03/14 05:37:13;;;;;;;2.15;0.10;;;19.50;49.80;;;;;;5123023;27;20050;-47
2022/03/14 05:39:40;;;;;;;0.15;0.05;;;19.50;49.80;;;;;;5123611;27;20046;-49
2022/03/14 05:42:08;;;;;;;0.40;0.20;;;19.50;49.80;;;;;;5118827;27;20035;-49
2022/03/14 05:44:35;;;;;;;1.15;0.10;;;19.50;49.90;;;;;;5128069;27;20126;-48
2022/03/14 05:47:02;;;;;;;0.10;0.10;;;19.50;49.90;;;;;;5119557;27;20035;-48
2022/03/14 05:49:31;;;;;;;1.90;0.52;;;19.50;49.90;;;;;;5130031;27;20123;-47
2022/03/14 05:51:58;;;;;;;1.65;0.30;;;19.50;50.00;;;;;;5125606;27;20039;-46
2022/03/14 05:54:25;;;;;;;0.43;0.10;;;19.50;50.00;;;;;;5125205;27;20113;-49
2022/03/14 05:56:54;;;;;;;22.25;0.68;;;19.50;50.00;;;;;;5126413;27;20067;-56
2022/03/14 05:59:21;;;;;;;2.13;0.10;;;19.50;50.00;;;;;;5124319;27;20043;-53
2022/03/14 06:01:48;;;;;;;5.88;0.65;;;19.50;50.20;;;;;;5125953;27;20043;-53
2022/03/14 06:04:15;;;;;;;3.75;0.25;;;19.70;50.30;;;;;;5124435;27;20035;-53
2022/03/14 06:06:44;;;;;;;7.43;0.10;;;19.80;50.20;;;;;;5127040;27;20035;-55
2022/03/14 06:09:11;;;;;;;5.65;0.45;;;19.90;50.00;;;;;;5111826;27;20047;-63
2022/03/14 06:11:38;;;;;;;3.50;0.25;;;19.90;48.60;;;;;;5117674;27;20031;-50
2022/03/14 06:14:06;;;;;;;2.47;0.20;;;19.90;48.60;;;;;;5128651;27;20050;-48
2022/03/14 06:16:34;;;;;;;2.33;0.38;;;19.90;48.60;;;;;;5123655;27;20039;-49
2022/03/14 06:19:01;;;;;;;1.05;0.10;;;19.90;48.60;;;;;;5126851;27;20047;-52
2022/03/14 06:21:28;;;;;;;1.98;0.10;;;20.00;48.70;;;;;;5124845;27;20031;-46
2022/03/14 06:23:56;;;;;;;2.47;0.10;;;20.10;48.50;;;;;;5107790;27;20043;-50
2022/03/14 06:26:23;;;;;;;1.13;0.10;;;20.20;48.20;;;;;;5128283;27;20039;-50
2022/03/14 06:28:51;;;;;;;0.85;0.10;;;20.30;47.90;;;;;;5127617;27;20475;-57
2022/03/14 06:31:19;;;;;;;3.17;0.20;;;20.50;47.50;;;;;;5127606;27;20151;-57
2022/03/14 06:33:49;;;;;;;3.00;0.68;;;20.80;47.00;;;;;;5108209;27;20043;-52
2022/03/14 06:36:16;;;;;;;1.67;0.22;;;21.10;46.30;;;;;;5127095;27;20039;-62
2022/03/14 06:38:43;;;;;;;1.23;0.47;;;21.30;45.80;;;;;;5121245;27;20031;-61
2022/03/14 06:41:12;;;;;;;1.00;0.25;;;21.60;45.20;;;;;;5119488;27;20043;-61
2022/03/14 06:43:39;;;;;;;3.75;0.20;;;21.90;44.60;;;;;;5131504;27;20114;-60
2022/03/14 06:46:06;;;;;;;2.65;0.55;;;22.10;44.00;;;;;;5122516;27;20043;-62
2022/03/14 06:48:39;;;;;;;0.82;0.10;;;22.30;43.50;;;;;;5132156;27;20091;-67
2022/03/14 06:51:06;;;;;;;1.70;0.30;;;22.50;43.00;;;;;;5107278;27;20064;-70
2022/03/14 06:53:33;;;;;;;1.85;0.10;;;22.70;42.60;;;;;;5119921;27;20130;-65
2022/03/14 06:56:00;;;;;;;1.23;0.20;;;22.90;42.80;;;;;;5121544;27;20043;-59
2022/03/14 06:58:30;;;;;;;2.80;0.63;;;23.10;41.90;;;;;;5128927;27;20050;-63
2022/03/14 07:00:58;;;;;;;1.38;0.10;;;23.30;41.70;;;;;;5120531;27;20471;-54
2022/03/14 07:03:27;;;;;;;1.55;0.28;;;23.40;41.90;;;;;;5124774;27;20054;-57
2022/03/14 07:05:54;;;;;;;1.10;0.10;;;23.50;41.00;;;;;;5117470;27;20570;-62
2022/03/14 07:08:21;;;;;;;2.15;0.22;;;23.60;40.60;;;;;;5128105;27;20053;-60
2022/03/14 07:10:48;;;;;;;0.30;0.10;;;23.80;40.30;;;;;;5116187;27;20908;-63
2022/03/14 07:13:15;;;;;;;1.65;0.40;;;23.90;40.10;;;;;;5121014;27;20043;-57
2022/03/14 07:15:43;;;;;;;3.65;0.45;;;24.00;39.80;;;;;;5122740;27;20070;-58
2022/03/14 07:18:11;;;;;;;0.47;0.10;;;24.10;39.60;;;;;;5126040;27;20633;-65
2022/03/14 07:20:38;;;;;;;3.65;0.10;;;24.20;39.40;;;;;;5127882;27;20057;-64
2022/03/14 07:23:07;;;;;;;1.90;0.20;;;24.30;39.20;;;;;;5124374;27;20049;-61
2022/03/14 07:25:37;;;;;;;1.75;0.10;;;24.30;38.90;;;;;;5133719;27;20484;-55
2022/03/14 07:28:06;;;;;;;0.90;0.17;;;24.40;38.80;;;;;;5129300;27;20115;-58
2022/03/14 07:30:33;;;;;;;1.20;0.32;;;24.50;38.70;;;;;;5123308;27;20035;-60
2022/03/14 07:33:02;;;;;;;1.42;0.50;;;24.60;38.60;;;;;;5109450;27;20533;-60
2022/03/14 07:35:30;;;;;;;1.48;0.20;;;24.70;38.50;;;;;;5127600;27;20122;-59
2022/03/14 07:37:57;;;;;;;1.75;0.10;;;24.70;38.30;;;;;;5119555;27;20066;-61
2022/03/14 07:40:24;;;;;;;1.35;0.10;;;24.80;38.20;;;;;;5127741;27;20043;-61
2022/03/14 07:42:54;;;;;;;1.70;0.20;;;24.90;38.00;;;;;;5117549;27;20138;-60
2022/03/14 07:45:24;;;;;;;0.85;0.10;;;24.90;37.80;;;;;;5122265;27;20035;-61
2022/03/14 07:47:51;;;;;;;0.57;0.20;;;25.00;38.00;;;;;;5119167;27;20060;-62
2022/03/14 07:50:19;;;;;;;2.25;0.28;;;25.00;37.60;;;;;;5127323;27;20039;-57
2022/03/14 07:52:48;;;;;;;2.47;0.20;;;25.10;37.60;;;;;;5122188;27;20109;-54
2022/03/14 07:55:15;;;;;;;1.05;0.20;;;25.10;37.40;;;;;;5123005;27;20590;-57
2022/03/14 07:57:43;;;;;;;1.38;0.10;;;25.10;37.30;;;;;;5128734;27;20046;-60
2022/03/14 08:00:12;;;;;;;3.17;0.10;;;25.20;37.20;;;;;;5134267;27;20145;-54
2022/03/14 08:02:42;;;;;;;1.05;0.20;;;25.20;37.00;;;;;;5118564;28;20054;-56
2022/03/14 08:05:11;;;;;;;1.95;0.10;;;25.20;37.00;;;;;;5118497;27;20507;-60
2022/03/14 08:07:41;;;;;;;1.85;0.10;;;25.20;36.90;;;;;;5130263;27;20042;-61
2022/03/14 08:10:09;;;;;;;1.52;0.10;;;25.30;36.90;;;;;;5127454;27;20062;-54
2022/03/14 08:12:48;;;;;;;0.10;0.10;;;25.30;36.90;;;;;;5121402;27;20057;-54
2022/03/14 08:15:23;;;;;;;0.77;0.10;;;25.30;36.80;;;;;;5103723;27;20039;-53
2022/03/14 08:17:51;;;;;;;2.70;0.10;;;25.30;36.80;;;;;;5132025;27;20045;-59
2022/03/14 08:20:19;;;;;;;3.33;0.10;;;25.30;36.80;;;;;;5118483;27;20042;-60
2022/03/14 08:22:47;;;;;;;3.95;0.73;;;25.30;36.90;;;;;;5121918;27;20047;-59
2022/03/14 08:25:15;;;;;;;0.50;0.40;;;25.30;36.80;;;;;;5121496;27;20065;-55
2022/03/14 08:27:42;;;;;;;0.17;0.10;;;25.30;36.80;;;;;;5121357;27;20046;-61
2022/03/14 08:30:10;;;;;;;1.20;0.10;;;25.30;36.80;;;;;;5124220;27;20059;-60
2022/03/14 08:32:39;;;;;;;1.70;1.13;;;25.30;36.80;;;;;;5122635;27;20047;-60
2022/03/14 08:35:08;;;;;;;0.50;0.30;;;25.20;36.90;;;;;;5119035;27;20656;-58
2022/03/14 08:37:36;;;;;;;4.57;0.40;;;25.00;37.00;;;;;;5124811;27;20046;-63
2022/03/14 08:40:07;;;;;;;2.30;0.20;;;24.90;37.20;;;;;;5129148;27;20824;-59
2022/03/14 08:42:38;;;;;;;0.73;0.20;;;24.90;37.30;;;;;;5125076;27;20040;-63
2022/03/14 08:45:07;;;;;;;4.72;0.30;;;24.80;37.40;;;;;;5123524;27;20122;-61
2022/03/14 08:47:35;;;;;;;2.10;0.10;;;24.80;37.50;;;;;;5116320;27;20092;-57
2022/03/14 08:50:03;;;;;;;1.85;0.20;;;24.90;37.40;;;;;;5130999;27;20042;-61
2022/03/14 08:52:30;;;;;;;1.88;0.30;;;24.90;37.30;;;;;;5126763;27;20115;-61
2022/03/14 08:54:57;;;;;;;2.42;0.30;;;24.90;37.20;;;;;;5120793;27;20130;-60
2022/03/14 08:57:27;;;;;;;1.23;0.20;;;24.80;37.20;;;;;;5113784;27;20074;-59
2022/03/14 08:59:55;;;;;;;3.08;0.40;;;24.70;37.30;;;;;;5112649;27;20054;-59
2022/03/14 09:02:22;;;;;;;1.67;0.32;;;24.70;37.40;;;;;;5121055;27;20042;-65
2022/03/14 09:04:49;;;;;;;4.03;0.40;;;24.60;37.50;;;;;;5124614;27;20039;-64
2022/03/14 09:07:25;;;;;;;2.72;0.55;;;24.60;37.60;;;;;;5113382;27;20039;-63
2022/03/14 09:09:52;;;;;;;;;;;24.60;37.80;;;;;;5132629;27;20530;-65
2022/03/14 09:12:20;;;;;;;1.85;0.50;;;24.50;38.00;;;;;;5121676;27;20394;-62
2022/03/14 09:14:50;;;;;;;2.67;0.50;;;24.40;38.30;;;;;;5123987;27;20472;-61
2022/03/14 09:17:17;;;;;;;1.52;0.30;;;24.40;38.70;;;;;;5128094;27;20047;-62
2022/03/14 09:19:44;;;;;;;0.95;0.40;;;24.30;38.40;;;;;;5126566;27;20050;-60
2022/03/14 09:22:11;;;;;;;2.78;0.47;;;24.40;38.60;;;;;;5122241;27;20052;-60
2022/03/14 09:24:39;;;;;;;2.25;0.30;;;24.30;38.50;;;;;;5128064;27;20039;-62
2022/03/14 09:27:06;;;;;;;1.23;0.30;;;24.30;38.60;;;;;;5127832;27;20051;-58
2022/03/14 09:29:34;;;;;;;1.65;0.20;;;24.30;38.60;;;;;;5122960;27;20027;-56
2022/03/14 09:32:03;;;;;;;1.85;0.43;;;24.30;38.70;;;;;;5127756;27;20043;-57
2022/03/14 09:34:31;;;;;;;0.80;0.30;;;24.40;38.80;;;;;;5131746;27;20035;-62
2022/03/14 09:36:59;;;;;;;1.10;0.52;;;24.50;38.70;;;;;;5123262;27;20054;-65
2022/03/14 09:39:26;;;;;;;1.38;0.35;;;24.60;38.60;;;;;;5124302;27;20035;-59
2022/03/14 09:41:54;;;;;;;1.55;0.40;;;24.70;38.40;;;;;;5128304;27;20042;-60
2022/03/14 09:44:22;;;;;;;4.20;0.52;;;24.80;38.20;;;;;;5126918;27;20092;-62
2022/03/14 09:46:50;;;;;;;4.43;0.32;;;24.90;38.00;;;;;;5116299;27;20127;-63
2022/03/14 09:49:20;;;;;;;1.00;0.32;;;25.00;37.90;;;;;;5133413;27;20047;-54
2022/03/14 09:51:48;;;;;;;1.00;0.40;;;25.10;37.80;;;;;;5129771;27;20075;-55
2022/03/14 09:54:15;;;;;;;1.33;0.22;;;25.10;37.70;;;;;;5128286;27;20099;-54
2022/03/14 09:56:43;;;;;;;2.25;0.47;;;25.20;37.60;;;;;;5116126;27;20126;-55
2022/03/14 09:59:12;;;;;;;1.85;0.73;;;25.30;37.50;;;;;;5123761;27;20584;-62
2022/03/14 10:01:40;;;;;;;2.28;0.52;;;25.30;37.50;;;;;;5107217;27;20062;-67
2022/03/14 10:04:08;;;;;;;2.85;0.38;;;25.40;37.50;;;;;;5119859;27;20031;-64
2022/03/14 10:06:40;;;;;;;1.40;0.30;;;25.50;37.50;;;;;;5127166;27;20128;-64
2022/03/14 10:09:07;;;;;;;2.28;0.35;;;25.50;37.30;;;;;;5129483;27;20050;-65
2022/03/14 10:11:35;;;;;;;1.48;0.70;;;25.60;37.30;;;;;;5113771;27;20035;-67
2022/03/14 10:14:04;;;;;;;2.88;0.47;;;25.60;37.20;;;;;;5131581;27;20103;-66
2022/03/14 10:16:32;;;;;;;4.43;0.35;;;25.70;37.20;;;;;;5126477;27;20063;-64
2022/03/14 10:19:02;;;;;;;4.78;0.32;;;25.70;37.20;;;;;;5121809;27;20046;-62
2022/03/14 10:21:34;;;;;;;1.40;0.45;;;25.70;37.10;;;;;;5126253;27;20039;-63
2022/03/14 10:24:04;;;;;;;1.38;0.50;;;25.80;37.10;;;;;;5119522;27;20047;-51
2022/03/14 10:26:33;;;;;;;1.45;0.40;;;25.80;37.00;;;;;;5128624;27;20067;-50
2022/03/14 10:29:01;;;;;;;1.85;1.58;;;25.80;36.90;;;;;;5132826;27;20043;-49
2022/03/14 10:31:30;;;;;;;1.20;0.43;;;25.90;36.80;;;;;;5133333;27;20038;-62
2022/03/14 10:34:04;;;;;;;3.78;0.20;;;25.90;36.80;;;;;;5126665;27;20038;-54
2022/03/14 10:36:45;;;;;;;1.75;0.68;;;26.00;36.80;;;;;;5132316;27;20039;-55
2022/03/14 10:39:22;;;;;;;0.70;0.43;;;26.00;36.80;;;;;;5099473;27;20055;-53
2022/03/14 10:42:03;;;;;;;3.42;0.20;;;26.00;36.80;;;;;;5122988;27;20035;-53
2022/03/14 10:44:31;;;;;;;3.00;0.30;;;26.00;36.90;;;;;;5119769;27;20046;-64
2022/03/14 10:47:00;;;;;;;1.67;0.28;;;25.90;37.00;;;;;;5122282;27;20549;-61
2022/03/14 10:49:29;;;;;;;1.08;0.22;;;25.80;37.10;;;;;;5131054;27;20039;-62
2022/03/14 10:51:57;;;;;;;1.45;0.30;;;25.80;37.30;;;;;;5125800;27;20532;-64
2022/03/14 10:54:26;;;;;;;3.80;0.47;;;25.80;37.40;;;;;;5120749;27;20559;-62
2022/03/14 10:57:07;;;;;;;2.95;0.20;;;25.70;37.40;;;;;;5126451;27;20043;-60
2022/03/14 10:59:35;;;;;;;2.65;0.38;;;25.70;37.30;;;;;;5116866;27;20130;-62
2022/03/14 11:02:03;;;;;;;2.38;0.52;;;25.70;37.40;;;;;;5121672;27;20051;-58
2022/03/14 11:04:41;;;;;;;2.15;0.73;;;25.70;37.40;;;;;;5095914;28;20053;-58
2022/03/14 11:07:08;;;;;;;1.42;0.65;;;25.70;37.40;;;;;;5129907;27;20101;-58
2022/03/14 11:09:40;;;;;;;1.42;0.30;;;25.70;37.40;;;;;;5129895;27;20042;-54
2022/03/14 11:12:09;;;;;;;2.22;0.30;;;25.70;37.40;;;;;;5118623;27;20495;-56
2022/03/14 11:14:39;;;;;;;2.55;0.30;;;25.70;37.40;;;;;;5124087;27;20047;-55
2022/03/14 11:17:18;;;;;;;2.70;0.40;;;25.70;37.40;;;;;;5114765;27;20047;-61
2022/03/14 11:19:45;;;;;;;2.05;0.50;;;25.80;37.50;;;;;;5113136;27;20051;-55
2022/03/14 11:22:13;;;;;;;7.57;0.73;;;25.70;37.40;;;;;;5127540;27;20039;-58
2022/03/14 11:24:44;;;;;;;5.05;0.40;;;25.70;37.40;;;;;;5118353;27;20067;-66
2022/03/14 11:27:26;;;;;;;6.93;0.30;;;25.80;37.50;;;;;;5121037;27;20046;-60
2022/03/14 11:29:55;;;;;;;3.95;0.85;;;25.80;37.50;;;;;;5116162;27;20072;-63
2022/03/14 11:32:22;;;;;;;2.00;0.20;;;25.80;37.40;;;;;;5121201;27;20031;-57
2022/03/14 11:34:51;;;;;;;2.95;0.32;;;25.80;37.40;;;;;;5126090;27;20074;-62
2022/03/14 11:37:19;;;;;;;5.20;0.47;;;25.90;37.70;;;;;;5121059;27;20038;-63
2022/03/14 11:39:47;;;;;;;2.55;0.30;;;26.00;37.60;;;;;;5126566;27;20507;-63
2022/03/14 11:42:16;;;;;;;2.28;0.47;;;26.00;37.50;;;;;;5121176;27;20046;-64
2022/03/14 11:44:45;;;;;;;5.38;0.63;;;26.00;37.30;;;;;;5120617;28;20051;-63
2022/03/14 11:47:15;;;;;;;2.00;0.40;;;26.10;37.20;;;;;;5119229;27;21165;-64
2022/03/14 11:49:43;;;;;;;2.78;0.10;;;26.20;37.10;;;;;;5130626;27;20131;-64
2022/03/14 11:52:18;;;;;;;4.40;0.40;;;26.30;37.00;;;;;;5126060;27;20039;-62
2022/03/14 11:54:49;;;;;;;1.85;0.40;;;26.40;37.00;;;;;;5116239;27;20036;-50
2022/03/14 11:57:35;;;;;;;4.47;0.40;;;26.40;36.80;;;;;;5119097;27;20157;-51
2022/03/14 12:00:34;;;;;;;11.00;0.43;;;26.50;36.80;;;;;;5127052;27;20074;-48
2022/03/14 12:03:03;;;;;;;1.20;0.10;;;26.60;36.80;;;;;;5122751;27;20424;-49
2022/03/14 12:05:48;;;;;;;2.85;0.30;;;26.60;36.70;;;;;;5120289;28;20076;-50
2022/03/14 12:09:01;;;;;;;3.10;0.30;;;26.80;36.70;;;;;;5123907;27;21302;-48
2022/03/14 12:11:40;;;;;;;2.22;0.20;;;26.80;36.60;;;;;;5110059;27;20035;-60
2022/03/14 12:14:12;;;;;;;3.05;0.50;;;27.00;37.30;;;;;;5131557;27;20040;-62
2022/03/14 12:16:40;;;;;;;0.90;0.40;;;27.00;36.60;;;;;;5131910;27;20499;-65
2022/03/14 12:19:32;;;;;;;0.40;0.10;;;27.20;36.50;;;;;;5128392;27;20047;-49
2022/03/14 12:22:01;;;;;;;2.30;0.20;;;27.20;36.40;;;;;;5127716;27;20070;-52
2022/03/14 12:24:45;;;;;;;1.15;0.28;;;27.30;36.30;;;;;;5124115;27;20047;-58
2022/03/14 12:27:20;;;;;;;0.38;0.20;;;27.40;36.20;;;;;;5125616;27;20043;-59
2022/03/14 12:29:48;;;;;;;0.95;0.10;;;27.50;36.20;;;;;;5120539;27;20130;-63
2022/03/14 12:32:32;;;;;;;4.60;0.20;;;27.60;36.20;;;;;;5132160;27;20037;-63
2022/03/14 12:35:02;;;;;;;1.83;0.30;;;27.70;36.10;;;;;;5119093;27;20039;-51
2022/03/14 12:37:40;;;;;;;0.85;0.40;;;27.70;36.00;;;;;;5125274;27;20047;-52
2022/03/14 12:40:09;;;;;;;3.42;0.20;;;27.80;35.90;;;;;;5127095;27;20039;-50
2022/03/14 12:42:43;;;;;;;1.40;0.22;;;27.90;35.90;;;;;;5127626;27;20053;-54
2022/03/14 12:45:17;;;;;;;3.42;0.47;;;28.00;35.80;;;;;;5125992;27;20046;-62
2022/03/14 12:47:51;;;;;;;4.43;0.30;;;28.10;35.80;;;;;;5122814;27;20070;-63
2022/03/14 12:50:46;;;;;;;1.52;0.10;;;28.10;35.70;;;;;;5136419;27;20498;-66
2022/03/14 12:53:15;;;;;;;2.22;0.20;;;28.20;36.20;;;;;;5130960;27;20055;-67
2022/03/14 12:55:44;;;;;;;1.60;0.20;;;28.30;35.50;;;;;;5133428;27;20085;-65
2022/03/14 12:58:18;;;;;;;0.75;0.20;;;28.40;35.40;;;;;;5129735;27;20035;-60